NDB weather

Nouadhibou International Airport
Nouadhibou, Dakhlet Nouadhibou Region, Mauritania

Public forecast

Using degrees Celsius for public forecast. Weather courtesy of forecast.io.

METAR (pilot weather report)

Retrieved 2019/05/19 12:00 UTC (18 minutes ago):

GQPP 191200Z 34014KT 8000 NSC 23/16 Q1015 NOSIG

TAF (pilot weather forecast)

Retrieved 2019/05/19 12:51 UTC (0 seconds ago):

TAF GQPP 191100Z 1912/2012 35014KT 7000 NSC TEMPO 1915/1920 4000 DRSA PROB40 TEMPO 1923/2009 BKN006